createdAt,value
2019-03-28T00:01:49.341Z,22.37
2019-03-28T00:04:19.482Z,24.97
2019-03-28T00:06:49.603Z,22.97
2019-03-28T00:09:19.882Z,19.07
2019-03-28T00:11:49.685Z,20.13
2019-03-28T00:14:19.846Z,21.30
2019-03-28T00:16:49.939Z,21.07
2019-03-28T00:19:20.093Z,22.67
2019-03-28T00:21:51.902Z,26.67
2019-03-28T00:24:23.134Z,21.60
2019-03-28T00:26:52.577Z,21.63
2019-03-28T00:29:22.038Z,28.10
2019-03-28T00:31:51.517Z,24.43
2019-03-28T00:34:20.959Z,17.97
2019-03-28T00:36:50.897Z,21.10
2019-03-28T00:39:21.000Z,23.67
2019-03-28T00:41:51.121Z,20.17
2019-03-28T00:44:21.213Z,21.10
2019-03-28T00:46:51.357Z,19.25
2019-03-28T00:49:21.448Z,24.57
2019-03-28T00:51:51.661Z,20.07
2019-03-28T00:54:24.453Z,24.77
2019-03-28T00:56:53.927Z,26.70
2019-03-28T00:59:24.261Z,20.77
2019-03-28T01:01:53.830Z,25.37
2019-03-28T01:04:23.347Z,26.33
2019-03-28T01:06:52.888Z,19.27
2019-03-28T01:09:22.361Z,20.53
2019-03-28T01:11:52.423Z,20.97
2019-03-28T01:14:21.988Z,21.63
2019-03-28T01:16:51.467Z,27.40
2019-03-28T01:19:20.917Z,20.70
2019-03-28T01:21:50.461Z,26.57
2019-03-28T01:24:20.893Z,26.13
2019-03-28T01:26:57.158Z,22.40
2019-03-28T01:29:21.485Z,20.77
2019-03-28T01:31:54.927Z,21.13
2019-03-28T01:34:24.379Z,25.67
2019-03-28T01:36:54.410Z,21.47
2019-03-28T01:39:24.517Z,14.63
2019-03-28T01:41:54.649Z,18.83
2019-03-28T01:44:24.729Z,17.23
2019-03-28T01:46:54.835Z,22.93
2019-03-28T01:49:25.093Z,20.83
2019-03-28T01:51:55.189Z,18.57
2019-03-28T01:54:28.811Z,23.10
2019-03-28T01:57:10.444Z,24.33
2019-03-28T01:59:29.925Z,20.97
2019-03-28T02:01:59.406Z,22.27
2019-03-28T02:04:28.874Z,16.93
2019-03-28T02:06:59.167Z,17.63
2019-03-28T02:09:28.816Z,23.60
2019-03-28T02:11:58.346Z,22.53
2019-03-28T02:14:27.828Z,21.33
2019-03-28T02:16:57.284Z,23.20
2019-03-28T02:19:26.840Z,25.50
2019-03-28T02:21:56.497Z,25.63
2019-03-28T02:24:26.632Z,24.27
2019-03-28T02:26:56.636Z,22.60
2019-03-28T02:29:26.735Z,23.53
2019-03-28T02:31:56.906Z,21.43
2019-03-28T02:34:26.985Z,23.37
2019-03-28T02:36:57.224Z,24.57
2019-03-28T02:39:28.280Z,27.10
2019-03-28T02:41:57.849Z,24.17
2019-03-28T02:44:27.445Z,31.23
2019-03-28T02:46:57.580Z,31.13
2019-03-28T02:49:27.678Z,26.83
2019-03-28T02:51:57.890Z,35.90
2019-03-28T02:54:27.968Z,30.03
2019-03-28T02:56:58.026Z,31.03
2019-03-28T02:59:28.580Z,27.75
2019-03-28T03:01:58.239Z,30.20
2019-03-28T03:04:28.443Z,25.57
2019-03-28T03:06:58.390Z,26.93
2019-03-28T03:09:28.518Z,29.33
2019-03-28T03:11:58.712Z,26.07
2019-03-28T03:14:28.725Z,29.07
2019-03-28T03:16:58.930Z,27.33
2019-03-28T03:19:29.001Z,28.83
2019-03-28T03:21:59.155Z,30.37
2019-03-28T03:24:29.239Z,30.87
2019-03-28T03:26:59.382Z,32.65
2019-03-28T03:29:29.356Z,28.53
2019-03-28T03:31:59.458Z,27.17
2019-03-28T03:34:29.613Z,29.27
2019-03-28T03:36:59.862Z,30.27
2019-03-28T03:39:29.929Z,28.53
2019-03-28T03:42:00.215Z,27.60
2019-03-28T03:44:30.236Z,30.93
2019-03-28T03:47:00.155Z,32.20
2019-03-28T03:49:30.784Z,27.63
2019-03-28T03:52:00.446Z,27.27
2019-03-28T03:54:30.557Z,27.97
2019-03-28T03:57:00.621Z,31.67
2019-03-28T03:59:30.771Z,35.00
2019-03-28T04:02:00.847Z,36.67
2019-03-28T04:04:30.994Z,37.50
2019-03-28T04:07:01.078Z,29.83
2019-03-28T04:09:31.235Z,36.57
2019-03-28T04:12:01.334Z,37.20
2019-03-28T04:14:31.404Z,32.73
2019-03-28T04:17:01.559Z,33.50
2019-03-28T04:19:32.144Z,33.77
2019-03-28T04:22:01.880Z,28.60
2019-03-28T04:24:31.913Z,30.30
2019-03-28T04:27:02.008Z,30.13
2019-03-28T04:29:32.144Z,30.53
2019-03-28T04:32:02.157Z,34.67
2019-03-28T04:34:31.624Z,25.07
2019-03-28T04:37:01.103Z,32.70
2019-03-28T04:39:30.567Z,29.90
2019-03-28T04:42:00.102Z,31.40
2019-03-28T04:44:29.549Z,32.13
2019-03-28T04:46:59.035Z,33.43
2019-03-28T04:49:28.483Z,29.57
2019-03-28T04:51:57.939Z,32.53
2019-03-28T04:54:27.407Z,32.73
2019-03-28T04:56:56.858Z,39.43
2019-03-28T04:59:26.351Z,36.37
2019-03-28T05:02:03.034Z,27.87
2019-03-28T05:04:28.518Z,30.53
2019-03-28T05:06:59.043Z,32.83
2019-03-28T05:09:28.517Z,30.80
2019-03-28T05:11:57.981Z,31.00
2019-03-28T05:14:27.445Z,32.20
2019-03-28T05:16:56.918Z,28.67
2019-03-28T05:22:00.131Z,29.27
2019-03-28T05:24:29.583Z,31.20
2019-03-28T05:26:59.173Z,34.23
2019-03-28T05:29:28.635Z,32.43
2019-03-28T05:31:58.121Z,33.93
2019-03-28T05:34:27.587Z,30.17
2019-03-28T05:36:57.141Z,34.87
2019-03-28T05:39:26.682Z,27.87
2019-03-28T05:41:56.142Z,26.70
2019-03-28T05:44:25.605Z,30.83
2019-03-28T05:46:55.056Z,29.63
2019-03-28T05:49:24.537Z,30.93
2019-03-28T05:51:53.982Z,30.53
2019-03-28T05:54:23.459Z,30.63
2019-03-28T05:56:52.913Z,30.77
2019-03-28T05:59:22.383Z,30.77
2019-03-28T06:01:51.831Z,34.10
2019-03-28T06:04:21.281Z,35.30
2019-03-28T06:06:50.761Z,31.60
2019-03-28T06:09:20.224Z,32.70
2019-03-28T06:11:52.789Z,32.17
2019-03-28T06:14:24.749Z,28.10
2019-03-28T06:16:54.235Z,29.60
2019-03-28T06:19:23.685Z,38.57
2019-03-28T06:21:53.165Z,36.60
2019-03-28T06:24:22.615Z,30.73
2019-03-28T06:26:52.065Z,32.63
2019-03-28T06:29:23.940Z,31.67
2019-03-28T06:31:55.644Z,34.80
2019-03-28T06:34:24.941Z,34.40
2019-03-28T06:36:54.505Z,27.63
2019-03-28T06:39:23.978Z,28.13
2019-03-28T06:41:53.524Z,24.27
2019-03-28T06:44:23.042Z,30.67
2019-03-28T06:46:52.509Z,29.47
2019-03-28T06:49:21.968Z,30.60
2019-03-28T06:51:51.429Z,31.33
2019-03-28T06:54:23.966Z,31.13
2019-03-28T06:56:52.064Z,32.30
2019-03-28T06:59:21.523Z,34.77
2019-03-28T07:01:52.036Z,34.20
2019-03-28T07:04:21.669Z,28.43
2019-03-28T07:06:51.164Z,26.97
2019-03-28T07:09:20.613Z,31.10
2019-03-28T07:11:50.209Z,28.47
2019-03-28T07:14:19.686Z,34.67
2019-03-28T07:16:49.151Z,36.80
2019-03-28T07:19:18.706Z,40.67
2019-03-28T07:21:48.171Z,35.07
2019-03-28T07:24:17.679Z,30.67
2019-03-28T07:26:47.160Z,32.17
2019-03-28T07:29:16.706Z,32.00
2019-03-28T07:31:46.167Z,30.67
2019-03-28T07:34:15.689Z,30.97
2019-03-28T07:36:45.187Z,35.60
2019-03-28T07:39:14.633Z,36.00
2019-03-28T07:41:44.103Z,31.03
2019-03-28T07:44:13.643Z,29.07
2019-03-28T07:46:43.347Z,30.03
2019-03-28T07:49:13.595Z,27.07
2019-03-28T07:51:43.575Z,33.00
2019-03-28T07:54:13.779Z,34.57
2019-03-28T07:56:43.913Z,30.30
2019-03-28T07:59:15.101Z,26.87
2019-03-28T08:01:44.759Z,25.23
2019-03-28T08:04:14.233Z,27.83
2019-03-28T08:06:49.801Z,27.73
2019-03-28T08:09:17.558Z,25.50
2019-03-28T08:11:48.225Z,27.43
2019-03-28T08:14:17.754Z,27.97
2019-03-28T08:16:47.241Z,30.07
2019-03-28T08:19:16.707Z,31.17
2019-03-28T08:21:46.177Z,26.83
2019-03-28T08:24:15.642Z,24.83
2019-03-28T08:26:45.240Z,26.05
2019-03-28T08:29:15.311Z,26.97
2019-03-28T08:31:47.097Z,24.83
2019-03-28T08:34:18.607Z,24.53
2019-03-28T08:36:48.765Z,25.20
2019-03-28T08:39:18.987Z,23.07
2019-03-28T08:41:48.858Z,20.43
2019-03-28T08:44:18.709Z,22.93
2019-03-28T08:46:48.171Z,23.80
2019-03-28T08:49:17.663Z,24.93
2019-03-28T08:51:47.139Z,25.57
2019-03-28T08:54:16.641Z,20.33
2019-03-28T08:56:46.579Z,19.67
2019-03-28T08:59:16.727Z,23.20
2019-03-28T09:01:50.117Z,24.13
2019-03-28T09:04:19.601Z,19.97
2019-03-28T09:06:49.073Z,25.10
2019-03-28T09:09:21.118Z,19.35
2019-03-28T09:11:51.037Z,16.33
2019-03-28T09:14:22.175Z,20.30
2019-03-28T09:16:51.629Z,18.10
2019-03-28T09:19:21.088Z,17.40
2019-03-28T09:21:50.565Z,23.13
2019-03-28T09:24:20.177Z,16.43
2019-03-28T09:26:49.714Z,14.13
2019-03-28T09:29:19.169Z,22.13
2019-03-28T09:31:48.798Z,18.03
2019-03-28T09:34:18.320Z,17.80
2019-03-28T09:36:48.371Z,19.57
2019-03-28T09:39:18.473Z,21.03
2019-03-28T09:41:48.616Z,21.02
2019-03-28T09:44:20.336Z,23.38
2019-03-28T09:46:49.835Z,21.27
2019-03-28T09:49:20.372Z,22.10
2019-03-28T09:51:49.869Z,19.37
2019-03-28T09:54:19.334Z,20.12
2019-03-28T09:56:49.181Z,22.20
2019-03-28T09:59:19.298Z,19.63
2019-03-28T10:01:49.424Z,23.47
2019-03-28T10:04:19.539Z,24.43
2019-03-28T10:06:49.713Z,17.37
2019-03-28T10:09:21.426Z,18.07
2019-03-28T10:11:50.982Z,18.70
2019-03-28T10:14:20.449Z,18.32
2019-03-28T10:16:50.310Z,18.27
2019-03-28T10:19:20.233Z,21.17
2019-03-28T10:21:50.350Z,21.57
2019-03-28T10:24:20.808Z,19.98
2019-03-28T10:26:50.688Z,16.86
2019-03-28T10:29:20.707Z,19.02
2019-03-28T10:31:51.346Z,15.90
2019-03-28T10:34:20.976Z,14.20
2019-03-28T10:36:50.944Z,18.90
2019-03-28T10:39:21.074Z,16.12
2019-03-28T10:41:51.247Z,13.80
2019-03-28T10:44:21.312Z,16.05
2019-03-28T10:46:51.410Z,17.54
2019-03-28T10:49:21.848Z,19.50
2019-03-28T10:51:51.614Z,15.05
2019-03-28T10:54:21.764Z,19.73
2019-03-28T10:56:52.558Z,17.00
2019-03-28T10:59:23.912Z,16.75
2019-03-28T11:01:54.154Z,13.50
2019-03-28T11:04:23.692Z,17.07
2019-03-28T11:06:53.248Z,14.20
2019-03-28T11:09:22.696Z,18.42
2019-03-28T11:11:52.528Z,17.05
2019-03-28T11:14:22.911Z,15.30
2019-03-28T11:16:53.030Z,13.93
2019-03-28T11:19:23.142Z,18.52
2019-03-28T11:21:53.262Z,17.80
2019-03-28T11:24:23.368Z,15.93
2019-03-28T11:26:53.500Z,18.82
2019-03-28T11:29:23.602Z,20.62
2019-03-28T11:31:53.745Z,16.57
2019-03-28T11:34:23.740Z,16.10
2019-03-28T11:36:53.880Z,19.60
2019-03-28T11:39:24.034Z,21.23
2019-03-28T11:41:54.228Z,21.83
2019-03-28T11:44:24.204Z,16.97
2019-03-28T11:46:54.350Z,20.30
2019-03-28T11:49:24.372Z,21.20
2019-03-28T11:51:54.580Z,20.32
2019-03-28T11:54:24.692Z,17.63
2019-03-28T11:56:54.813Z,17.97
2019-03-28T11:59:24.900Z,20.37
2019-03-28T12:02:00.469Z,18.67
2019-03-28T12:04:26.147Z,20.02
2019-03-28T12:06:56.714Z,21.60
2019-03-28T12:09:26.256Z,21.10
2019-03-28T12:11:55.811Z,20.00
2019-03-28T12:14:25.605Z,22.02
2019-03-28T12:16:55.725Z,15.35
2019-03-28T12:19:25.860Z,15.18
2019-03-28T12:21:56.023Z,18.67
2019-03-28T12:24:26.217Z,17.65
2019-03-28T12:26:56.164Z,14.98
2019-03-28T12:29:26.383Z,14.65
2019-03-28T12:31:56.334Z,16.67
2019-03-28T12:34:26.546Z,17.66
2019-03-28T12:36:56.536Z,20.05
2019-03-28T12:39:26.665Z,20.30
2019-03-28T12:41:56.770Z,19.40
2019-03-28T12:44:26.900Z,16.95
2019-03-28T12:46:56.992Z,17.37
2019-03-28T12:49:26.540Z,15.45
2019-03-28T12:51:56.001Z,14.75
2019-03-28T12:54:25.507Z,14.60
2019-03-28T12:56:57.938Z,19.27
2019-03-28T12:59:26.130Z,15.28
2019-03-28T13:01:55.579Z,12.75
2019-03-28T13:04:25.149Z,13.10
2019-03-28T13:06:54.605Z,14.65
2019-03-28T13:09:24.185Z,13.78
2019-03-28T13:11:53.643Z,12.73
2019-03-28T13:14:23.099Z,14.98
2019-03-28T13:16:52.567Z,17.55
2019-03-28T13:19:22.088Z,19.52
2019-03-28T13:21:53.459Z,11.87
2019-03-28T13:24:22.646Z,12.98
2019-03-28T13:26:52.074Z,16.10
2019-03-28T13:29:21.438Z,10.83
2019-03-28T13:31:50.868Z,11.90
2019-03-28T13:34:20.382Z,10.63
2019-03-28T13:36:49.915Z,15.10
2019-03-28T13:39:19.356Z,10.63
2019-03-28T13:41:48.790Z,13.62
2019-03-28T13:44:19.256Z,13.03
2019-03-28T13:46:48.673Z,10.43
2019-03-28T13:49:18.101Z,12.28
2019-03-28T13:51:47.503Z,11.30
2019-03-28T13:54:16.952Z,8.80
2019-03-28T13:56:46.414Z,11.97
2019-03-28T13:59:15.876Z,14.05
2019-03-28T14:01:45.313Z,12.70
2019-03-28T14:04:14.842Z,9.40
2019-03-28T14:06:44.378Z,13.77
2019-03-28T14:09:13.940Z,13.00
2019-03-28T14:11:43.452Z,11.83
2019-03-28T14:14:12.905Z,12.00
2019-03-28T14:16:42.344Z,12.47
2019-03-28T14:19:11.744Z,13.13
2019-03-28T14:21:41.183Z,11.90
2019-03-28T14:24:11.905Z,12.03
2019-03-28T14:26:41.382Z,10.97
2019-03-28T14:29:12.460Z,10.70
2019-03-28T14:31:41.904Z,10.00
2019-03-28T14:34:11.304Z,9.88
2019-03-28T14:36:40.822Z,10.25
2019-03-28T14:39:10.268Z,10.98
2019-03-28T14:41:39.697Z,11.40
2019-03-28T14:44:09.059Z,13.45
2019-03-28T14:46:38.503Z,10.25
2019-03-28T14:49:08.217Z,9.90
2019-03-28T14:51:39.709Z,11.30
2019-03-28T14:54:08.774Z,10.10
2019-03-28T14:56:38.905Z,14.60
2019-03-28T14:59:09.611Z,18.45
2019-03-28T15:01:39.098Z,11.83
2019-03-28T15:04:08.520Z,8.78
2019-03-28T15:06:37.954Z,11.80
2019-03-28T15:09:08.374Z,9.63
2019-03-28T15:11:39.479Z,12.43
2019-03-28T15:14:08.906Z,8.53
2019-03-28T15:16:38.400Z,7.75
2019-03-28T15:19:08.916Z,9.17
2019-03-28T15:21:38.357Z,13.30
2019-03-28T15:24:07.872Z,11.50
2019-03-28T15:26:37.493Z,8.75
2019-03-28T15:29:06.999Z,8.40
2019-03-28T15:31:36.434Z,11.38
2019-03-28T15:34:05.803Z,12.83
2019-03-28T15:36:35.274Z,10.50
2019-03-28T15:39:07.392Z,8.93
2019-03-28T15:41:38.524Z,13.85
2019-03-28T15:44:08.036Z,12.65
2019-03-28T15:46:37.639Z,12.18
2019-03-28T15:49:07.070Z,10.50
2019-03-28T15:51:37.626Z,9.45
2019-03-28T15:54:07.272Z,10.98
2019-03-28T15:56:36.718Z,11.57
2019-03-28T15:59:06.240Z,11.55
2019-03-28T16:01:35.932Z,12.03
2019-03-28T16:04:06.002Z,12.85
2019-03-28T16:06:36.072Z,11.35
2019-03-28T16:09:07.277Z,12.36
2019-03-28T16:11:36.706Z,12.93
2019-03-28T16:14:06.375Z,14.03
2019-03-28T16:16:36.553Z,14.23
2019-03-28T16:19:07.058Z,11.83
2019-03-28T16:21:36.741Z,13.17
2019-03-28T16:24:06.872Z,9.90
2019-03-28T16:26:36.938Z,10.97
2019-03-28T16:29:07.606Z,10.95
2019-03-28T16:31:37.232Z,13.30
2019-03-28T16:34:07.683Z,13.27
2019-03-28T16:36:37.410Z,13.87
2019-03-28T16:39:07.791Z,13.40
2019-03-28T16:41:38.843Z,11.22
2019-03-28T16:44:08.359Z,11.53
2019-03-28T16:46:37.872Z,9.87
2019-03-28T16:49:08.164Z,9.35
2019-03-28T16:51:38.103Z,8.60
2019-03-28T16:54:08.235Z,9.30
2019-03-28T16:56:38.359Z,8.97
2019-03-28T16:59:08.488Z,6.57
2019-03-28T17:01:38.563Z,9.10
2019-03-28T17:04:19.981Z,9.95
2019-03-28T17:06:39.842Z,10.17
2019-03-28T17:09:10.521Z,12.87
2019-03-28T17:11:40.469Z,11.43
2019-03-28T17:14:09.939Z,9.97
2019-03-28T17:16:39.383Z,12.07
2019-03-28T17:19:09.415Z,10.67
2019-03-28T17:21:39.816Z,9.93
2019-03-28T17:24:09.627Z,9.00
2019-03-28T17:26:39.744Z,10.07
2019-03-28T17:29:09.849Z,8.43
2019-03-28T17:31:39.993Z,13.33
2019-03-28T17:34:10.107Z,13.23
2019-03-28T17:36:40.134Z,11.43
2019-03-28T17:39:10.466Z,11.00
2019-03-28T17:41:40.474Z,10.27
2019-03-28T17:44:10.634Z,12.03
2019-03-28T17:46:40.693Z,12.87
2019-03-28T17:49:10.791Z,10.83
2019-03-28T17:51:40.941Z,10.03
2019-03-28T17:54:11.834Z,10.13
2019-03-28T17:56:41.595Z,10.33
2019-03-28T17:59:11.262Z,8.43
2019-03-28T18:01:42.841Z,9.07
2019-03-28T18:04:22.852Z,11.37
2019-03-28T18:06:45.242Z,11.03
2019-03-28T18:09:14.809Z,12.97
2019-03-28T18:11:47.768Z,8.67
2019-03-28T18:14:17.437Z,9.37
2019-03-28T18:16:46.985Z,10.50
2019-03-28T18:19:18.186Z,10.90
2019-03-28T18:21:47.711Z,13.17
2019-03-28T18:24:17.257Z,12.60
2019-03-28T18:26:47.368Z,12.70
2019-03-28T18:29:19.312Z,15.57
2019-03-28T18:31:52.611Z,11.57
2019-03-28T18:34:21.342Z,9.57
2019-03-28T18:36:52.617Z,7.87
2019-03-28T18:39:22.299Z,11.27
2019-03-28T18:41:56.230Z,9.67
2019-03-28T18:44:24.073Z,11.20
2019-03-28T18:46:53.614Z,9.77
2019-03-28T18:49:23.063Z,12.50
2019-03-28T18:51:52.535Z,10.60
2019-03-28T18:54:23.975Z,9.43
2019-03-28T18:56:53.423Z,13.03
2019-03-28T18:59:24.420Z,10.03
2019-03-28T19:01:54.573Z,14.60
2019-03-28T19:04:24.013Z,14.37
2019-03-28T19:06:57.610Z,18.50
2019-03-28T19:09:25.929Z,14.80
2019-03-28T19:11:56.127Z,13.57
2019-03-28T19:14:28.421Z,12.07
2019-03-28T19:17:00.113Z,14.40
2019-03-28T19:19:39.315Z,13.93
2019-03-28T19:22:02.624Z,16.33
2019-03-28T19:24:32.076Z,14.63
2019-03-28T19:27:01.521Z,11.93
2019-03-28T19:29:31.087Z,11.07
2019-03-28T19:32:00.692Z,12.90
2019-03-28T19:34:30.170Z,13.33
2019-03-28T19:36:59.739Z,13.23
2019-03-28T19:39:33.761Z,14.67
2019-03-28T19:42:04.975Z,19.98
2019-03-28T19:44:37.507Z,13.68
2019-03-28T19:47:07.018Z,12.87
2019-03-28T19:49:40.697Z,13.83
2019-03-28T19:52:13.281Z,14.07
2019-03-28T19:54:43.071Z,12.03
2019-03-28T19:57:13.415Z,13.97
2019-03-28T19:59:42.988Z,18.63
2019-03-28T20:02:14.217Z,17.73
2019-03-28T20:04:43.644Z,14.00
2019-03-28T20:07:21.676Z,17.47
2019-03-28T20:09:45.364Z,15.10
2019-03-28T20:12:14.886Z,18.07
2019-03-28T20:14:47.508Z,16.33
2019-03-28T20:17:18.419Z,16.63
2019-03-28T20:19:47.896Z,17.63
2019-03-28T20:22:17.458Z,21.77
2019-03-28T20:24:46.990Z,16.40
2019-03-28T20:27:17.659Z,17.67
2019-03-28T20:29:47.133Z,16.97
2019-03-28T20:32:16.673Z,19.03
2019-03-28T20:34:49.094Z,20.17
2019-03-28T20:37:18.494Z,18.23
2019-03-28T20:39:48.061Z,19.17
2019-03-28T20:42:18.774Z,19.20
2019-03-28T20:44:49.543Z,18.43
2019-03-28T20:47:19.059Z,18.07
2019-03-28T20:49:49.875Z,18.10
2019-03-28T20:52:19.442Z,18.57
2019-03-28T20:54:50.445Z,16.80
2019-03-28T20:57:21.001Z,19.40
2019-03-28T20:59:51.404Z,22.43
2019-03-28T21:02:23.682Z,21.47
2019-03-28T21:04:53.379Z,19.87
2019-03-28T21:07:23.008Z,20.37
2019-03-28T21:09:52.829Z,20.60
2019-03-28T21:12:22.826Z,19.63
2019-03-28T21:14:55.293Z,17.90
2019-03-28T21:17:26.408Z,23.40
2019-03-28T21:19:55.823Z,21.43
2019-03-28T21:22:26.918Z,17.40
2019-03-28T21:24:58.217Z,18.83
2019-03-28T21:27:27.686Z,19.57
2019-03-28T21:29:57.268Z,19.00
2019-03-28T21:32:26.815Z,23.00
2019-03-28T21:34:57.409Z,20.43
2019-03-28T21:37:27.900Z,19.90
2019-03-28T21:39:57.504Z,21.43
2019-03-28T21:42:28.051Z,20.03
2019-03-28T21:44:58.501Z,22.77
2019-03-28T21:47:28.166Z,20.17
2019-03-28T21:49:57.746Z,19.73
2019-03-28T21:52:27.310Z,21.27
2019-03-28T21:54:57.039Z,19.87
2019-03-28T21:57:26.514Z,21.27
2019-03-28T21:59:55.976Z,15.70
2019-03-28T22:02:25.526Z,18.47
2019-03-28T22:04:56.462Z,18.83
2019-03-28T22:07:26.793Z,24.73
2019-03-28T22:09:56.312Z,17.90
2019-03-28T22:12:25.784Z,20.83
2019-03-28T22:14:55.236Z,20.43
2019-03-28T22:17:26.983Z,18.40
2019-03-28T22:19:56.048Z,22.90
2019-03-28T22:22:25.540Z,20.53
2019-03-28T22:24:55.062Z,22.40
2019-03-28T22:27:25.000Z,23.07
2019-03-28T22:29:55.059Z,16.60
2019-03-28T22:32:25.004Z,20.97
2019-03-28T22:34:54.924Z,19.60
2019-03-28T22:37:24.962Z,24.23
2019-03-28T22:39:55.169Z,21.83
2019-03-28T22:42:25.074Z,17.70
2019-03-28T22:44:55.082Z,20.73
2019-03-28T22:47:25.114Z,20.73
2019-03-28T22:49:55.015Z,20.10
2019-03-28T22:52:25.058Z,20.90
2019-03-28T22:54:55.156Z,20.20
2019-03-28T22:57:25.154Z,20.70
2019-03-28T22:59:55.187Z,25.40
2019-03-28T23:02:25.262Z,22.00
2019-03-28T23:04:55.268Z,20.97
2019-03-28T23:07:25.226Z,21.73
2019-03-28T23:09:55.226Z,25.03
2019-03-28T23:12:25.254Z,21.40
2019-03-28T23:14:55.240Z,20.90
2019-03-28T23:17:25.284Z,22.77
2019-03-28T23:19:55.194Z,20.73
2019-03-28T23:22:25.304Z,19.10
2019-03-28T23:24:55.371Z,21.47
2019-03-28T23:27:25.380Z,20.00
2019-03-28T23:29:55.339Z,21.23
2019-03-28T23:32:25.379Z,22.27
2019-03-28T23:34:55.376Z,22.67
2019-03-28T23:37:26.835Z,20.23
2019-03-28T23:39:57.684Z,23.43
2019-03-28T23:42:27.144Z,20.10
2019-03-28T23:44:56.644Z,24.37
2019-03-28T23:47:27.160Z,20.73
2019-03-28T23:49:57.702Z,23.17
2019-03-28T23:52:28.263Z,23.13
2019-03-28T23:54:57.719Z,22.10
2019-03-28T23:57:28.947Z,24.80
2019-03-28T23:59:58.652Z,20.80
